Time;durP1;ratioP1;P1;durP2;ratioP2;P2;SDS_P1;SDS_P2;PMS_P1;PMS_P2;Temp;Humidity;BMP_temperature;BMP_pressure;BME280_temperature;BME280_humidity;BME280_pressure;Samples;Min_cycle;Max_cycle;Signal;HPM_P1;HPM_P2
2023/06/12 00:00:05;;;;;;;3.92;3.53;;;;;;;;;;5073777;28;20215;-92
2023/06/12 00:02:32;;;;;;;6.07;3.72;;;;;;;;;;5078164;28;20217;-92
2023/06/12 00:04:59;;;;;;;3.63;3.30;;;;;;;;;;5046873;28;20203;-91
2023/06/12 00:07:28;;;;;;;4.43;3.42;;;;;;;;;;5072470;28;20225;-92
2023/06/12 00:09:56;;;;;;;3.97;3.67;;;;;;;;;;5073990;28;20199;-92
2023/06/12 00:12:23;;;;;;;3.85;3.42;;;;;;;;;;5065941;28;20208;-91
2023/06/12 00:14:51;;;;;;;4.40;3.60;;;;;;;;;;5069745;28;20290;-92
2023/06/12 00:17:20;;;;;;;6.78;3.65;;;;;;;;;;5078845;28;20233;-94
2023/06/12 00:19:47;;;;;;;3.88;3.58;;;;;;;;;;5077808;28;20310;-93
2023/06/12 00:22:14;;;;;;;3.70;3.50;;;;;;;;;;5073257;28;20202;-92
2023/06/12 00:24:42;;;;;;;3.90;3.50;;;;;;;;;;5073692;28;20278;-92
2023/06/12 00:27:10;;;;;;;3.80;3.50;;;;;;;;;;5057953;28;20211;-92
2023/06/12 00:29:38;;;;;;;3.90;3.58;;;;;;;;;;5073084;28;20199;-93
2023/06/12 00:32:05;;;;;;;3.90;3.60;;;;;;;;;;5073399;28;20213;-93
2023/06/12 00:34:34;;;;;;;4.43;3.70;;;;;;;;;;5067681;28;20199;-93
2023/06/12 00:37:02;;;;;;;4.25;3.85;;;;;;;;;;5072625;28;20293;-93
2023/06/12 00:39:30;;;;;;;3.90;3.40;;;;;;;;;;5050821;28;20284;-92
2023/06/12 00:41:57;;;;;;;3.88;3.58;;;;;;;;;;5065520;28;20231;-92
2023/06/12 00:44:24;;;;;;;4.03;3.60;;;;;;;;;;5070106;28;20202;-92
2023/06/12 00:46:52;;;;;;;4.22;3.45;;;;;;;;;;5058454;28;20218;-93
2023/06/12 00:49:19;;;;;;;3.58;3.28;;;;;;;;;;5072616;28;20278;-93
2023/06/12 00:51:48;;;;;;;3.58;3.28;;;;;;;;;;5073171;28;20195;-93
2023/06/12 00:54:16;;;;;;;3.70;3.30;;;;;;;;;;5070713;28;20199;-92
2023/06/12 00:56:43;;;;;;;4.18;3.78;;;;;;;;;;5072849;28;20210;-93
2023/06/12 00:59:11;;;;;;;4.03;3.60;;;;;;;;;;5072233;28;20199;-92
2023/06/12 01:01:38;;;;;;;3.90;3.60;;;;;;;;;;5072895;28;20217;-93
2023/06/12 01:04:09;;;;;;;3.60;3.33;;;;;;;;;;5071927;28;20270;-93
2023/06/12 01:06:40;;;;;;;3.95;3.50;;;;;;;;;;5071583;28;20218;-92
2023/06/12 01:09:15;;;;;;;4.82;3.50;;;;;;;;;;5067131;28;20219;-93
2023/06/12 01:11:43;;;;;;;4.40;3.53;;;;;;;;;;5072639;28;20202;-92
2023/06/12 01:14:10;;;;;;;3.78;3.55;;;;;;;;;;5075614;28;20205;-93
2023/06/12 01:16:40;;;;;;;3.60;3.30;;;;;;;;;;5072750;28;20199;-91
2023/06/12 01:19:08;;;;;;;3.92;3.55;;;;;;;;;;5076571;28;20227;-93
2023/06/12 01:21:36;;;;;;;4.30;3.42;;;;;;;;;;5067605;28;20209;-93
2023/06/12 01:24:23;;;;;;;3.75;3.50;;;;;;;;;;5075467;28;20206;-93
2023/06/12 01:27:13;;;;;;;4.70;3.60;;;;;;;;;;5073577;28;20297;-93
2023/06/12 01:29:47;;;;;;;4.18;3.78;;;;;;;;;;5072647;28;20194;-92
2023/06/12 01:32:17;;;;;;;4.18;3.88;;;;;;;;;;5076008;28;20203;-92
2023/06/12 01:34:50;;;;;;;3.83;3.53;;;;;;;;;;5068584;28;20203;-92
2023/06/12 01:37:22;;;;;;;3.85;3.50;;;;;;;;;;5059341;28;20195;-93
2023/06/12 01:39:55;;;;;;;4.15;3.72;;;;;;;;;;5073308;28;20222;-92
2023/06/12 01:42:22;;;;;;;6.38;3.80;;;;;;;;;;5076434;28;20195;-92
2023/06/12 01:44:51;;;;;;;3.70;3.40;;;;;;;;;;5074034;28;20226;-92
2023/06/12 01:47:20;;;;;;;3.75;3.42;;;;;;;;;;5080834;28;20218;-93
2023/06/12 01:49:47;;;;;;;3.55;3.25;;;;;;;;;;5077142;28;20197;-92
2023/06/12 01:52:15;;;;;;;3.90;3.60;;;;;;;;;;5058575;28;20203;-93
2023/06/12 01:54:45;;;;;;;5.38;3.60;;;;;;;;;;5074224;28;20203;-92
2023/06/12 01:57:12;;;;;;;4.15;3.80;;;;;;;;;;5076177;28;20219;-94
2023/06/12 01:59:40;;;;;;;3.60;3.40;;;;;;;;;;5067185;28;20207;-93
2023/06/12 02:02:07;;;;;;;4.10;3.80;;;;;;;;;;5069818;28;20203;-93
2023/06/12 02:04:36;;;;;;;4.07;3.60;;;;;;;;;;5071100;28;20201;-92
2023/06/12 02:07:04;;;;;;;4.00;3.63;;;;;;;;;;5074207;28;20258;-93
2023/06/12 02:09:31;;;;;;;4.20;3.90;;;;;;;;;;5074871;28;20210;-92
2023/06/12 02:12:00;;;;;;;4.20;3.80;;;;;;;;;;5070987;28;20201;-91
2023/06/12 02:14:27;;;;;;;3.83;3.42;;;;;;;;;;5067484;28;20206;-92
2023/06/12 02:16:54;;;;;;;4.85;3.90;;;;;;;;;;5073293;28;20203;-92
2023/06/12 02:19:25;;;;;;;4.20;3.80;;;;;;;;;;5073192;28;20241;-92
2023/06/12 02:21:54;;;;;;;3.92;3.53;;;;;;;;;;5072374;28;20227;-92
2023/06/12 02:24:22;;;;;;;5.63;3.38;;;;;;;;;;5073139;28;20204;-93
2023/06/12 02:26:49;;;;;;;4.20;3.80;;;;;;;;;;5071198;28;20229;-92
2023/06/12 02:29:16;;;;;;;3.95;3.65;;;;;;;;;;5068230;28;20221;-92
2023/06/12 02:31:44;;;;;;;4.47;3.55;;;;;;;;;;5065809;28;20195;-92
2023/06/12 02:34:11;;;;;;;4.18;3.65;;;;;;;;;;5043218;28;20205;-93
2023/06/12 02:36:39;;;;;;;4.28;3.88;;;;;;;;;;5072634;28;20291;-93
2023/06/12 02:39:08;;;;;;;4.85;3.80;;;;;;;;;;5049349;28;20207;-93
2023/06/12 02:41:36;;;;;;;3.97;3.60;;;;;;;;;;5071273;28;20200;-91
2023/06/12 02:44:04;;;;;;;4.18;3.80;;;;;;;;;;5073302;28;20214;-92
2023/06/12 02:46:31;;;;;;;4.13;3.50;;;;;;;;;;5070112;28;20222;-93
2023/06/12 02:48:58;;;;;;;4.38;3.53;;;;;;;;;;5073296;28;20207;-93
2023/06/12 02:51:26;;;;;;;3.88;3.60;;;;;;;;;;5058133;28;20195;-92
2023/06/12 02:53:53;;;;;;;3.92;3.63;;;;;;;;;;5056346;28;20210;-92
2023/06/12 02:56:22;;;;;;;3.67;3.40;;;;;;;;;;5074135;28;20201;-92
2023/06/12 02:58:49;;;;;;;4.75;3.70;;;;;;;;;;5070128;28;20207;-92
2023/06/12 03:01:16;;;;;;;4.13;3.60;;;;;;;;;;5072922;28;20206;-92
2023/06/12 03:03:44;;;;;;;3.92;3.50;;;;;;;;;;5067561;28;20207;-92
2023/06/12 03:06:11;;;;;;;3.83;3.53;;;;;;;;;;5072759;28;20197;-92
2023/06/12 03:08:39;;;;;;;3.88;3.47;;;;;;;;;;5072437;28;20226;-93
2023/06/12 03:11:07;;;;;;;3.92;3.63;;;;;;;;;;5073646;28;20201;-93
2023/06/12 03:13:35;;;;;;;4.22;3.78;;;;;;;;;;5064152;28;20206;-92
2023/06/12 03:16:04;;;;;;;3.90;3.50;;;;;;;;;;5071694;28;20198;-93
2023/06/12 03:18:31;;;;;;;3.92;3.60;;;;;;;;;;5072559;28;20264;-92
2023/06/12 03:20:58;;;;;;;4.47;3.78;;;;;;;;;;5071517;28;20206;-92
2023/06/12 03:23:26;;;;;;;3.67;3.47;;;;;;;;;;5069302;28;20194;-93
2023/06/12 03:25:53;;;;;;;3.72;3.42;;;;;;;;;;5072013;28;20214;-92
2023/06/12 03:28:21;;;;;;;5.22;3.88;;;;;;;;;;5069005;28;20245;-92
2023/06/12 03:30:50;;;;;;;3.92;3.63;;;;;;;;;;5069177;28;20199;-93
2023/06/12 03:33:17;;;;;;;4.00;3.63;;;;;;;;;;5072000;28;20205;-93
2023/06/12 03:35:44;;;;;;;3.90;3.60;;;;;;;;;;5073341;28;20285;-92
2023/06/12 03:38:11;;;;;;;4.10;3.70;;;;;;;;;;5068393;28;20209;-92
2023/06/12 03:40:39;;;;;;;4.00;3.70;;;;;;;;;;5072949;28;20213;-92
2023/06/12 03:43:06;;;;;;;3.60;3.35;;;;;;;;;;5071733;28;20199;-92
2023/06/12 03:45:33;;;;;;;3.88;3.58;;;;;;;;;;5063768;28;20202;-92
2023/06/12 03:48:02;;;;;;;5.85;4.00;;;;;;;;;;5071995;28;20226;-92
2023/06/12 03:50:29;;;;;;;4.20;3.80;;;;;;;;;;5069159;28;20267;-92
2023/06/12 03:52:57;;;;;;;4.72;3.72;;;;;;;;;;5070982;28;20209;-93
2023/06/12 03:55:24;;;;;;;4.78;4.22;;;;;;;;;;5070383;28;20207;-92
2023/06/12 03:57:52;;;;;;;4.00;3.70;;;;;;;;;;5067931;28;20203;-92
2023/06/12 04:00:20;;;;;;;4.18;3.78;;;;;;;;;;5071884;28;20195;-91
2023/06/12 04:02:48;;;;;;;3.90;3.55;;;;;;;;;;5073036;28;20206;-92
2023/06/12 04:05:20;;;;;;;3.75;3.50;;;;;;;;;;5064304;28;20202;-92
2023/06/12 04:07:48;;;;;;;3.80;3.50;;;;;;;;;;5072585;28;20230;-92
2023/06/12 04:10:15;;;;;;;4.07;3.65;;;;;;;;;;5073367;28;20206;-92
2023/06/12 04:12:43;;;;;;;6.15;4.05;;;;;;;;;;5072045;28;20199;-92
2023/06/12 04:15:10;;;;;;;4.60;4.20;;;;;;;;;;5072186;28;20198;-92
2023/06/12 04:17:37;;;;;;;4.50;4.10;;;;;;;;;;5065648;28;20205;-92
2023/06/12 04:20:06;;;;;;;5.13;4.10;;;;;;;;;;5070477;28;20230;-91
2023/06/12 04:22:35;;;;;;;3.97;3.67;;;;;;;;;;5073021;28;20213;-92
2023/06/12 04:25:04;;;;;;;3.72;3.42;;;;;;;;;;5069812;28;20199;-92
2023/06/12 04:27:31;;;;;;;4.65;3.60;;;;;;;;;;5073172;28;20202;-93
2023/06/12 04:29:59;;;;;;;4.25;3.85;;;;;;;;;;5069979;28;20218;-92
2023/06/12 04:32:29;;;;;;;4.68;3.92;;;;;;;;;;5050337;28;20222;-90
2023/06/12 04:34:56;;;;;;;4.50;3.80;;;;;;;;;;5064944;28;20207;-92
2023/06/12 04:37:25;;;;;;;4.28;3.88;;;;;;;;;;5066070;28;20215;-92
2023/06/12 04:39:54;;;;;;;5.25;4.10;;;;;;;;;;5059874;28;20205;-93
2023/06/12 04:42:23;;;;;;;4.32;3.90;;;;;;;;;;5070796;28;20199;-93
2023/06/12 04:44:50;;;;;;;4.93;3.83;;;;;;;;;;5071647;28;20287;-94
2023/06/12 04:47:17;;;;;;;4.88;3.85;;;;;;;;;;5052820;28;20218;-96
2023/06/12 04:49:45;;;;;;;4.03;3.70;;;;;;;;;;5073408;28;20203;-92
2023/06/12 04:52:13;;;;;;;4.40;4.00;;;;;;;;;;5064172;28;20219;-94
2023/06/12 04:54:44;;;;;;;4.40;4.00;;;;;;;;;;5073285;28;20260;-94
2023/06/12 04:57:13;;;;;;;4.40;3.75;;;;;;;;;;5074753;28;20207;-94
2023/06/12 04:59:42;;;;;;;5.10;3.88;;;;;;;;;;5075950;28;20210;-94
2023/06/12 05:02:09;;;;;;;4.80;4.15;;;;;;;;;;5077257;28;20203;-93
2023/06/12 05:04:37;;;;;;;4.47;4.18;;;;;;;;;;5060879;28;20263;-92
2023/06/12 05:07:06;;;;;;;5.15;3.75;;;;;;;;;;5066084;28;20208;-96
2023/06/12 05:09:34;;;;;;;4.38;3.97;;;;;;;;;;5073200;28;20203;-95
2023/06/12 05:12:03;;;;;;;4.53;3.72;;;;;;;;;;5068235;28;20203;-94
2023/06/12 05:14:32;;;;;;;5.22;4.20;;;;;;;;;;5067052;28;20203;-93
2023/06/12 05:17:00;;;;;;;4.25;3.95;;;;;;;;;;5064360;28;20198;-92
2023/06/12 05:19:27;;;;;;;4.38;3.97;;;;;;;;;;5069609;28;20233;-92
2023/06/12 05:21:54;;;;;;;4.15;3.58;;;;;;;;;;5066988;28;20217;-89
2023/06/12 05:24:22;;;;;;;4.00;3.63;;;;;;;;;;5071393;28;20290;-91
2023/06/12 05:26:50;;;;;;;4.35;3.38;;;;;;;;;;5069038;28;20234;-93
2023/06/12 05:29:17;;;;;;;4.60;4.20;;;;;;;;;;5073439;28;20229;-92
2023/06/12 05:31:46;;;;;;;4.00;3.70;;;;;;;;;;5068126;28;20209;-93
2023/06/12 05:34:14;;;;;;;5.32;3.97;;;;;;;;;;5047023;28;20209;-95
2023/06/12 05:36:41;;;;;;;4.03;3.60;;;;;;;;;;5072341;28;20205;-92
2023/06/12 05:39:09;;;;;;;6.15;4.10;;;;;;;;;;5072611;28;20199;-91
2023/06/12 05:41:36;;;;;;;4.80;4.28;;;;;;;;;;5068857;28;20221;-91
2023/06/12 05:44:05;;;;;;;4.10;3.80;;;;;;;;;;5071326;28;20203;-90
2023/06/12 05:46:32;;;;;;;4.32;3.92;;;;;;;;;;5074824;28;20199;-92
2023/06/12 05:49:01;;;;;;;3.80;3.50;;;;;;;;;;5073716;28;20318;-90
2023/06/12 05:51:28;;;;;;;3.85;3.55;;;;;;;;;;5075598;28;20213;-90
2023/06/12 05:53:56;;;;;;;4.20;3.88;;;;;;;;;;5061649;28;20210;-91
2023/06/12 05:56:23;;;;;;;5.78;4.18;;;;;;;;;;5068993;28;20268;-92
2023/06/12 05:58:51;;;;;;;4.40;4.07;;;;;;;;;;5076856;28;20209;-92
2023/06/12 06:01:22;;;;;;;4.22;3.90;;;;;;;;;;5079383;28;20202;-92
2023/06/12 06:03:50;;;;;;;4.80;4.40;;;;;;;;;;5074041;28;20199;-91
2023/06/12 06:06:20;;;;;;;4.63;3.90;;;;;;;;;;5068828;28;20215;-92
2023/06/12 06:08:47;;;;;;;5.63;4.57;;;;;;;;;;5069361;28;20321;-92
2023/06/12 06:11:18;;;;;;;4.45;4.05;;;;;;;;;;5066390;28;20201;-92
2023/06/12 06:13:45;;;;;;;4.28;3.88;;;;;;;;;;5061193;28;20207;-91
2023/06/12 06:16:13;;;;;;;4.75;4.05;;;;;;;;;;5069615;28;20218;-92
2023/06/12 06:18:41;;;;;;;5.50;4.28;;;;;;;;;;5067045;28;20227;-92
2023/06/12 06:21:08;;;;;;;4.68;4.28;;;;;;;;;;5030751;28;20201;-92
2023/06/12 06:23:41;;;;;;;4.40;4.00;;;;;;;;;;5032455;28;20210;-93
2023/06/12 06:26:09;;;;;;;4.47;4.10;;;;;;;;;;5027921;28;20208;-94
2023/06/12 06:28:36;;;;;;;6.20;4.50;;;;;;;;;;5036707;28;20223;-92
2023/06/12 06:31:04;;;;;;;5.10;4.00;;;;;;;;;;5040317;28;20211;-92
2023/06/12 06:33:32;;;;;;;6.60;4.18;;;;;;;;;;5022379;28;20215;-92
2023/06/12 06:35:59;;;;;;;4.90;4.38;;;;;;;;;;5035134;28;20207;-91
2023/06/12 06:38:27;;;;;;;4.50;4.10;;;;;;;;;;5035474;28;20282;-91
2023/06/12 06:40:56;;;;;;;5.35;4.35;;;;;;;;;;5038571;28;20290;-91
2023/06/12 06:43:24;;;;;;;4.50;4.10;;;;;;;;;;5035026;28;20255;-92
2023/06/12 06:45:52;;;;;;;4.55;4.15;;;;;;;;;;5042636;28;20203;-92
2023/06/12 06:48:19;;;;;;;4.75;4.35;;;;;;;;;;5014622;28;20233;-92
2023/06/12 06:50:47;;;;;;;4.47;3.67;;;;;;;;;;5032583;28;20205;-92
2023/06/12 06:53:14;;;;;;;3.85;3.55;;;;;;;;;;5026659;28;20258;-93
2023/06/12 06:55:43;;;;;;;4.28;3.97;;;;;;;;;;5029542;28;20204;-93
2023/06/12 06:58:12;;;;;;;4.28;3.97;;;;;;;;;;5016854;28;20196;-93
2023/06/12 07:00:40;;;;;;;4.43;4.13;;;;;;;;;;5018130;28;20216;-93
2023/06/12 07:03:08;;;;;;;5.50;3.97;;;;;;;;;;5024479;28;20249;-93
2023/06/12 07:05:35;;;;;;;4.63;4.15;;;;;;;;;;5030069;28;20287;-95
2023/06/12 07:08:03;;;;;;;4.10;3.72;;;;;;;;;;5029687;28;20236;-91
2023/06/12 07:10:30;;;;;;;4.50;4.10;;;;;;;;;;5033006;28;20211;-92
2023/06/12 07:12:58;;;;;;;4.57;3.78;;;;;;;;;;5027991;28;20208;-91
2023/06/12 07:15:27;;;;;;;4.68;4.28;;;;;;;;;;5028179;28;20212;-91
2023/06/12 07:17:54;;;;;;;4.50;4.10;;;;;;;;;;5031917;28;20208;-91
2023/06/12 07:20:22;;;;;;;3.53;3.20;;;;;;;;;;5054973;28;20234;-92
2023/06/12 07:22:50;;;;;;;4.60;4.00;;;;;;;;;;5070575;28;20210;-90
2023/06/12 07:25:17;;;;;;;4.32;4.03;;;;;;;;;;5067837;28;20200;-94
2023/06/12 07:27:45;;;;;;;4.18;3.88;;;;;;;;;;5070773;28;20206;-91
2023/06/12 07:30:13;;;;;;;4.18;3.83;;;;;;;;;;5068928;28;20278;-92
2023/06/12 07:32:42;;;;;;;4.03;3.72;;;;;;;;;;5069254;28;20195;-95
2023/06/12 07:35:10;;;;;;;4.47;4.03;;;;;;;;;;5069966;28;20202;-93
2023/06/12 07:37:39;;;;;;;5.10;3.95;;;;;;;;;;5061631;28;20203;-92
2023/06/12 07:40:08;;;;;;;4.25;3.85;;;;;;;;;;5065771;28;20209;-92
2023/06/12 07:42:35;;;;;;;3.63;3.33;;;;;;;;;;5066985;28;20285;-92
2023/06/12 07:45:03;;;;;;;8.52;3.80;;;;;;;;;;5071475;28;20222;-92
2023/06/12 07:47:30;;;;;;;4.20;3.80;;;;;;;;;;5058994;28;20223;-92
2023/06/12 07:50:00;;;;;;;5.93;4.07;;;;;;;;;;5070837;28;20226;-94
2023/06/12 07:52:27;;;;;;;4.10;3.80;;;;;;;;;;5061738;28;20286;-94
2023/06/12 07:54:54;;;;;;;3.90;3.50;;;;;;;;;;5061608;28;20212;-94
2023/06/12 07:57:22;;;;;;;4.22;3.78;;;;;;;;;;5066606;28;20211;-94
2023/06/12 07:59:50;;;;;;;4.10;3.70;;;;;;;;;;5068425;28;20240;-95
2023/06/12 08:02:17;;;;;;;4.45;3.97;;;;;;;;;;5067529;28;20203;-96
2023/06/12 08:04:45;;;;;;;3.85;3.40;;;;;;;;;;5073367;28;20201;-94
2023/06/12 08:07:15;;;;;;;4.47;4.07;;;;;;;;;;5056103;28;20203;-94
2023/06/12 08:09:43;;;;;;;4.38;3.47;;;;;;;;;;5065552;28;20253;-95
2023/06/12 08:12:12;;;;;;;4.68;4.10;;;;;;;;;;5036112;28;20207;-96
2023/06/12 08:14:39;;;;;;;4.97;4.00;;;;;;;;;;5074603;28;20210;-94
2023/06/12 08:17:07;;;;;;;4.32;4.03;;;;;;;;;;5072404;28;20203;-95
2023/06/12 08:19:34;;;;;;;3.80;3.47;;;;;;;;;;5073485;28;20231;-95
2023/06/12 08:22:03;;;;;;;4.35;4.03;;;;;;;;;;5059114;28;20211;-94
2023/06/12 08:24:32;;;;;;;4.00;3.70;;;;;;;;;;5067067;28;20199;-96
2023/06/12 08:27:00;;;;;;;4.57;4.28;;;;;;;;;;5074230;28;20301;-95
2023/06/12 08:29:27;;;;;;;4.28;3.67;;;;;;;;;;5076914;28;20261;-93
2023/06/12 08:31:55;;;;;;;6.68;4.82;;;;;;;;;;5069007;28;20303;-92
2023/06/12 08:34:24;;;;;;;3.65;3.45;;;;;;;;;;5081093;28;20222;-92
2023/06/12 08:36:51;;;;;;;4.70;4.20;;;;;;;;;;5051793;28;20256;-92
2023/06/12 08:39:19;;;;;;;3.92;3.58;;;;;;;;;;5076545;28;20305;-92
2023/06/12 08:41:54;;;;;;;3.85;3.22;;;;;;;;;;5088142;28;20233;-92
2023/06/12 08:44:24;;;;;;;4.53;4.10;;;;;;;;;;5080161;28;20202;-92
2023/06/12 08:46:55;;;;;;;4.43;4.03;;;;;;;;;;5072775;28;20201;-91
2023/06/12 08:49:22;;;;;;;4.85;3.92;;;;;;;;;;5061985;28;20231;-91
2023/06/12 08:51:51;;;;;;;3.83;3.53;;;;;;;;;;5077163;28;20269;-92
2023/06/12 08:54:19;;;;;;;6.72;4.28;;;;;;;;;;5088299;28;20238;-92
2023/06/12 08:56:47;;;;;;;4.38;3.90;;;;;;;;;;5064726;28;20267;-91
2023/06/12 08:59:16;;;;;;;3.85;3.42;;;;;;;;;;5073096;28;20213;-90
2023/06/12 09:01:50;;;;;;;4.20;3.80;;;;;;;;;;5074116;28;20203;-91
2023/06/12 09:04:26;;;;;;;4.22;3.92;;;;;;;;;;5072643;28;20200;-92
2023/06/12 09:07:01;;;;;;;4.40;3.70;;;;;;;;;;5073968;28;20201;-93
2023/06/12 09:09:36;;;;;;;4.00;3.70;;;;;;;;;;5060710;28;20288;-92
2023/06/12 09:12:06;;;;;;;5.82;4.30;;;;;;;;;;5070124;28;20195;-92
2023/06/12 09:14:36;;;;;;;4.03;3.72;;;;;;;;;;5070246;28;20203;-94
2023/06/12 09:17:03;;;;;;;10.18;4.20;;;;;;;;;;5064594;28;20203;-93
2023/06/12 09:19:36;;;;;;;3.88;3.42;;;;;;;;;;5065147;28;20276;-94
2023/06/12 09:22:03;;;;;;;4.13;3.75;;;;;;;;;;5085074;28;20198;-95
2023/06/12 09:24:31;;;;;;;4.07;3.67;;;;;;;;;;5068853;28;20290;-95
2023/06/12 09:26:58;;;;;;;5.47;3.75;;;;;;;;;;5073555;28;20206;-94
2023/06/12 09:29:28;;;;;;;3.75;3.45;;;;;;;;;;5070067;28;20231;-93
2023/06/12 09:31:59;;;;;;;4.20;3.63;;;;;;;;;;5067686;28;20204;-94
2023/06/12 09:34:27;;;;;;;3.65;3.40;;;;;;;;;;5068582;28;20210;-92
2023/06/12 09:36:55;;;;;;;3.45;3.13;;;;;;;;;;5071020;28;20237;-93
2023/06/12 09:39:26;;;;;;;3.92;3.58;;;;;;;;;;5073169;28;20204;-92
2023/06/12 09:41:54;;;;;;;3.88;3.58;;;;;;;;;;5070838;28;20207;-92
2023/06/12 09:44:22;;;;;;;4.63;3.80;;;;;;;;;;5058772;28;20202;-92
2023/06/12 09:46:50;;;;;;;3.90;3.25;;;;;;;;;;5071580;28;20195;-92
2023/06/12 09:49:22;;;;;;;4.13;3.80;;;;;;;;;;5074085;28;20230;-92
2023/06/12 09:51:50;;;;;;;4.07;3.70;;;;;;;;;;5071195;28;20198;-93
2023/06/12 09:54:18;;;;;;;3.83;3.50;;;;;;;;;;5063776;28;20206;-93
2023/06/12 09:56:46;;;;;;;4.00;3.63;;;;;;;;;;5070148;28;20206;-93
2023/06/12 09:59:16;;;;;;;4.03;3.63;;;;;;;;;;5066448;28;20202;-95
2023/06/12 10:01:46;;;;;;;4.25;3.50;;;;;;;;;;5075133;28;20203;-92
2023/06/12 10:04:15;;;;;;;4.18;3.30;;;;;;;;;;5066042;28;20199;-93
2023/06/12 10:06:44;;;;;;;3.75;3.45;;;;;;;;;;5049491;28;20203;-92
2023/06/12 10:09:12;;;;;;;3.95;3.50;;;;;;;;;;5069603;28;20214;-92
2023/06/12 10:11:39;;;;;;;4.70;3.40;;;;;;;;;;5046858;28;20202;-91
2023/06/12 10:14:07;;;;;;;3.35;3.05;;;;;;;;;;5053732;28;20264;-92
2023/06/12 10:16:35;;;;;;;5.68;3.28;;;;;;;;;;5072515;28;20210;-93
2023/06/12 10:19:03;;;;;;;3.33;3.10;;;;;;;;;;5054819;28;20199;-92
2023/06/12 10:21:32;;;;;;;3.42;3.22;;;;;;;;;;5055901;28;20203;-92
2023/06/12 10:24:00;;;;;;;4.68;3.70;;;;;;;;;;5073521;28;20199;-93
2023/06/12 10:26:28;;;;;;;3.28;3.00;;;;;;;;;;5068078;28;20222;-92
2023/06/12 10:28:56;;;;;;;3.50;3.20;;;;;;;;;;5057728;28;20255;-92
2023/06/12 10:31:24;;;;;;;4.55;3.47;;;;;;;;;;5070384;28;20215;-92
2023/06/12 10:33:58;;;;;;;3.90;3.38;;;;;;;;;;5070047;28;20203;-92
2023/06/12 10:36:26;;;;;;;6.10;3.83;;;;;;;;;;5064047;28;20213;-92
2023/06/12 10:39:03;;;;;;;6.72;4.03;;;;;;;;;;5064005;28;20276;-92
2023/06/12 10:41:33;;;;;;;4.03;3.72;;;;;;;;;;5061796;28;20252;-93
2023/06/12 10:44:00;;;;;;;5.07;3.92;;;;;;;;;;5065770;28;20204;-92
2023/06/12 10:46:44;;;;;;;4.78;4.03;;;;;;;;;;5067494;28;20261;-92
2023/06/12 10:49:13;;;;;;;4.72;3.90;;;;;;;;;;5053450;28;20288;-92
2023/06/12 10:51:49;;;;;;;3.78;3.47;;;;;;;;;;5055596;28;20242;-92
2023/06/12 10:54:16;;;;;;;3.80;3.50;;;;;;;;;;5065781;28;20206;-93
2023/06/12 10:56:59;;;;;;;4.03;3.63;;;;;;;;;;5067130;28;20286;-93
2023/06/12 10:59:31;;;;;;;4.10;3.80;;;;;;;;;;5072516;28;20215;-93
2023/06/12 11:01:59;;;;;;;6.38;3.55;;;;;;;;;;5051301;28;20213;-92
2023/06/12 11:04:26;;;;;;;3.97;3.60;;;;;;;;;;5069989;28;20209;-91
2023/06/12 11:06:54;;;;;;;4.90;3.88;;;;;;;;;;5052989;28;20204;-91
2023/06/12 11:09:21;;;;;;;3.70;3.40;;;;;;;;;;5068961;28;20226;-92
2023/06/12 11:11:50;;;;;;;4.05;3.75;;;;;;;;;;5039702;28;20210;-91
2023/06/12 11:14:19;;;;;;;5.00;3.83;;;;;;;;;;5071409;28;20207;-93
2023/06/12 11:16:46;;;;;;;3.92;3.42;;;;;;;;;;5066235;28;20208;-91
2023/06/12 11:19:14;;;;;;;6.07;3.80;;;;;;;;;;5060924;28;20257;-90
2023/06/12 11:21:42;;;;;;;3.85;3.28;;;;;;;;;;5059676;28;20222;-90
2023/06/12 11:24:10;;;;;;;4.78;3.70;;;;;;;;;;5066015;28;20225;-93
2023/06/12 11:26:38;;;;;;;5.90;3.65;;;;;;;;;;5063325;28;20576;-92
2023/06/12 11:29:15;;;;;;;3.88;3.50;;;;;;;;;;5056295;28;20203;-91
2023/06/12 11:31:48;;;;;;;6.60;3.97;;;;;;;;;;5063889;28;20198;-91
2023/06/12 11:34:15;;;;;;;4.05;3.63;;;;;;;;;;5056889;28;20203;-91
2023/06/12 11:36:43;;;;;;;4.20;3.70;;;;;;;;;;5065424;28;20206;-90
2023/06/12 11:39:20;;;;;;;3.83;3.50;;;;;;;;;;5048522;28;20214;-89
2023/06/12 11:41:49;;;;;;;4.40;3.45;;;;;;;;;;5064853;28;20207;-89
2023/06/12 11:44:17;;;;;;;5.68;4.07;;;;;;;;;;5068354;28;20201;-88
2023/06/12 11:46:46;;;;;;;4.32;3.72;;;;;;;;;;5061735;28;20202;-88
2023/06/12 11:49:14;;;;;;;3.63;3.40;;;;;;;;;;5061863;28;20203;-91
2023/06/12 11:51:42;;;;;;;3.95;3.65;;;;;;;;;;5067511;28;20201;-89
2023/06/12 11:54:11;;;;;;;4.35;3.67;;;;;;;;;;5067873;28;20203;-89
2023/06/12 11:56:42;;;;;;;4.15;3.72;;;;;;;;;;5064145;28;20309;-88
2023/06/12 11:59:09;;;;;;;3.67;3.25;;;;;;;;;;5063761;28;20322;-89
2023/06/12 12:01:39;;;;;;;4.00;3.53;;;;;;;;;;5066751;28;20226;-91
2023/06/12 12:04:09;;;;;;;3.50;3.22;;;;;;;;;;5069001;28;20194;-90
2023/06/12 12:06:49;;;;;;;4.78;4.28;;;;;;;;;;5068542;28;20231;-90
2023/06/12 12:09:17;;;;;;;5.93;3.78;;;;;;;;;;5067364;28;20222;-89
2023/06/12 12:11:44;;;;;;;3.92;3.70;;;;;;;;;;5068232;28;20194;-89
2023/06/12 12:14:12;;;;;;;4.10;3.80;;;;;;;;;;5063289;28;20199;-91
2023/06/12 12:16:42;;;;;;;4.47;4.18;;;;;;;;;;5063305;28;20199;-89
2023/06/12 12:19:17;;;;;;;6.10;3.88;;;;;;;;;;5065035;28;20199;-89
2023/06/12 12:21:46;;;;;;;4.05;3.50;;;;;;;;;;5068928;28;20221;-90
2023/06/12 12:24:13;;;;;;;3.85;3.55;;;;;;;;;;5064383;28;20190;-90
2023/06/12 12:26:42;;;;;;;4.20;3.80;;;;;;;;;;5065410;28;20329;-91
2023/06/12 12:29:09;;;;;;;4.43;3.60;;;;;;;;;;5066946;28;20214;-91
2023/06/12 12:31:37;;;;;;;4.82;3.80;;;;;;;;;;5068460;28;20234;-90
2023/06/12 12:34:04;;;;;;;4.85;3.90;;;;;;;;;;5068470;28;20206;-90
2023/06/12 12:36:33;;;;;;;3.83;3.53;;;;;;;;;;5063373;28;20202;-91
2023/06/12 12:39:01;;;;;;;3.50;3.30;;;;;;;;;;5065740;28;20248;-90
2023/06/12 12:41:28;;;;;;;4.15;3.85;;;;;;;;;;5070361;28;20214;-90
2023/06/12 12:43:55;;;;;;;3.90;3.60;;;;;;;;;;5068015;28;20217;-90
2023/06/12 12:46:23;;;;;;;4.00;3.70;;;;;;;;;;5064694;28;20207;-91
2023/06/12 12:48:51;;;;;;;3.63;3.40;;;;;;;;;;5066652;28;20204;-90
2023/06/12 12:51:18;;;;;;;3.92;3.63;;;;;;;;;;5040989;28;20236;-90
2023/06/12 12:53:47;;;;;;;4.10;3.70;;;;;;;;;;5064553;28;20195;-90
2023/06/12 12:56:15;;;;;;;3.70;3.40;;;;;;;;;;5066802;28;20245;-90
2023/06/12 12:58:42;;;;;;;4.03;3.50;;;;;;;;;;5062460;28;20286;-90
2023/06/12 13:01:09;;;;;;;4.03;3.75;;;;;;;;;;5045735;28;20203;-90
2023/06/12 13:03:38;;;;;;;3.83;3.53;;;;;;;;;;5049706;28;20293;-89
2023/06/12 13:06:05;;;;;;;4.15;3.85;;;;;;;;;;5070284;28;20209;-90
2023/06/12 13:08:33;;;;;;;4.25;3.80;;;;;;;;;;5073368;28;20194;-90
2023/06/12 13:11:02;;;;;;;4.68;3.67;;;;;;;;;;5071829;28;20237;-90
2023/06/12 13:13:29;;;;;;;4.20;3.80;;;;;;;;;;5070919;28;20198;-90
2023/06/12 13:15:57;;;;;;;3.70;3.40;;;;;;;;;;5072594;28;20203;-90
2023/06/12 13:18:24;;;;;;;3.97;3.60;;;;;;;;;;5055885;28;20293;-90
2023/06/12 13:20:53;;;;;;;4.30;3.92;;;;;;;;;;5071243;28;20325;-90
2023/06/12 13:23:21;;;;;;;5.07;3.80;;;;;;;;;;5070097;28;20217;-90
2023/06/12 13:25:48;;;;;;;4.30;3.90;;;;;;;;;;5069324;28;20195;-90
2023/06/12 13:28:17;;;;;;;6.45;4.00;;;;;;;;;;5069364;28;20290;-91
2023/06/12 13:30:45;;;;;;;4.13;3.83;;;;;;;;;;5069069;28;20218;-90
2023/06/12 13:33:13;;;;;;;4.57;3.80;;;;;;;;;;5052751;28;20256;-91
2023/06/12 13:35:40;;;;;;;7.45;4.22;;;;;;;;;;5062239;28;20286;-91
2023/06/12 13:38:08;;;;;;;4.28;3.47;;;;;;;;;;5070139;28;20195;-90
2023/06/12 13:40:35;;;;;;;4.15;3.85;;;;;;;;;;5067036;28;20246;-90
2023/06/12 13:43:02;;;;;;;4.88;3.65;;;;;;;;;;5068097;28;20220;-89
2023/06/12 13:45:32;;;;;;;3.97;3.67;;;;;;;;;;5072125;28;20244;-91
2023/06/12 13:48:02;;;;;;;4.45;3.72;;;;;;;;;;5079335;28;20207;-89
2023/06/12 13:50:30;;;;;;;5.43;3.55;;;;;;;;;;5071596;28;20234;-90
2023/06/12 13:52:57;;;;;;;4.30;3.90;;;;;;;;;;5053026;28;20264;-91
2023/06/12 13:55:25;;;;;;;4.82;3.90;;;;;;;;;;5063407;28;20197;-88
2023/06/12 13:57:57;;;;;;;4.25;3.90;;;;;;;;;;5071175;28;20233;-88
2023/06/12 14:00:26;;;;;;;4.43;3.95;;;;;;;;;;5069547;28;20202;-92
2023/06/12 14:03:09;;;;;;;4.30;3.90;;;;;;;;;;5067090;28;20206;-91
2023/06/12 14:05:38;;;;;;;4.20;3.90;;;;;;;;;;5067569;28;20222;-91
2023/06/12 14:08:12;;;;;;;4.35;3.95;;;;;;;;;;5077933;28;20202;-93
2023/06/12 14:13:30;;;;;;;4.28;3.83;;;;;;;;;;5070376;28;20206;-88
2023/06/12 14:16:00;;;;;;;4.53;3.97;;;;;;;;;;5069013;28;20217;-90
2023/06/12 14:18:34;;;;;;;4.30;3.72;;;;;;;;;;5073720;28;20260;-89
2023/06/12 14:21:11;;;;;;;3.85;3.42;;;;;;;;;;5061686;28;20234;-89
2023/06/12 14:23:47;;;;;;;4.70;4.10;;;;;;;;;;5067791;28;20209;-90
2023/06/12 14:26:26;;;;;;;4.63;4.07;;;;;;;;;;5067431;28;20198;-89
2023/06/12 14:28:56;;;;;;;4.28;3.97;;;;;;;;;;5072945;28;20206;-89
2023/06/12 14:31:30;;;;;;;4.32;3.92;;;;;;;;;;5065570;28;20211;-90
2023/06/12 14:34:03;;;;;;;4.63;4.20;;;;;;;;;;5045801;28;20201;-89
2023/06/12 14:36:32;;;;;;;4.40;4.10;;;;;;;;;;5058438;28;20238;-88
2023/06/12 14:39:11;;;;;;;4.80;4.40;;;;;;;;;;5065023;28;20230;-91
2023/06/12 14:41:44;;;;;;;4.55;4.15;;;;;;;;;;5060707;28;20225;-91
2023/06/12 14:44:14;;;;;;;4.15;3.85;;;;;;;;;;5062957;28;20229;-90
2023/06/12 14:46:46;;;;;;;5.28;4.30;;;;;;;;;;5074551;28;20298;-89
2023/06/12 14:49:27;;;;;;;4.10;3.80;;;;;;;;;;5076030;28;20207;-90
2023/06/12 14:51:57;;;;;;;4.95;4.10;;;;;;;;;;5074835;28;20222;-90
2023/06/12 14:54:28;;;;;;;5.00;4.50;;;;;;;;;;5071006;28;20204;-89